createdAt,value
2018-09-17T00:01:06.978Z,15.00
2018-09-17T00:03:35.093Z,14.90
2018-09-17T00:06:03.240Z,14.90
2018-09-17T00:08:31.342Z,14.90
2018-09-17T00:10:59.471Z,14.80
2018-09-17T00:13:27.574Z,14.80
2018-09-17T00:15:55.709Z,14.80
2018-09-17T00:18:23.857Z,14.80
2018-09-17T00:20:52.061Z,14.80
2018-09-17T00:23:20.187Z,14.80
2018-09-17T00:25:48.344Z,14.80
2018-09-17T00:28:16.440Z,14.80
2018-09-17T00:30:44.561Z,14.70
2018-09-17T00:33:12.703Z,14.70
2018-09-17T00:35:40.821Z,14.60
2018-09-17T00:38:08.965Z,14.60
2018-09-17T00:40:37.081Z,14.60
2018-09-17T00:43:05.389Z,14.50
2018-09-17T00:45:33.505Z,14.50
2018-09-17T00:48:01.717Z,14.50
2018-09-17T00:50:29.845Z,14.50
2018-09-17T00:52:57.950Z,14.50
2018-09-17T00:55:26.091Z,14.50
2018-09-17T00:57:54.221Z,14.60
2018-09-17T01:00:22.386Z,14.50
2018-09-17T01:02:50.721Z,14.50
2018-09-17T01:05:18.889Z,14.40
2018-09-17T01:07:47.086Z,14.30
2018-09-17T01:10:15.193Z,14.30
2018-09-17T01:12:43.306Z,14.30
2018-09-17T01:15:11.447Z,14.20
2018-09-17T01:17:39.575Z,14.20
2018-09-17T01:20:07.893Z,14.10
2018-09-17T01:22:36.002Z,14.10
2018-09-17T01:25:04.130Z,14.00
2018-09-17T01:27:32.248Z,14.00
2018-09-17T01:30:00.381Z,14.00
2018-09-17T01:32:28.493Z,13.90
2018-09-17T01:34:56.598Z,13.90
2018-09-17T01:37:24.711Z,13.80
2018-09-17T01:39:52.831Z,13.80
2018-09-17T01:42:20.939Z,13.70
2018-09-17T01:44:49.052Z,13.70
2018-09-17T01:47:17.228Z,13.70
2018-09-17T01:49:51.926Z,13.70
2018-09-17T01:52:20.055Z,13.60
2018-09-17T01:54:48.193Z,13.60
2018-09-17T01:57:16.374Z,13.50
2018-09-17T01:59:44.486Z,13.50
2018-09-17T02:02:12.598Z,13.50
2018-09-17T02:04:40.721Z,13.50
2018-09-17T02:07:09.037Z,13.40
2018-09-17T02:09:39.502Z,13.30
2018-09-17T02:12:09.097Z,13.30
2018-09-17T02:14:37.301Z,13.30
2018-09-17T02:17:05.743Z,13.30
2018-09-17T02:19:33.879Z,13.20
2018-09-17T02:22:01.996Z,13.10
2018-09-17T02:24:30.127Z,13.20
2018-09-17T02:26:58.379Z,13.10
2018-09-17T02:29:26.616Z,13.10
2018-09-17T02:31:54.815Z,13.10
2018-09-17T02:34:22.962Z,13.10
2018-09-17T02:36:51.078Z,13.10
2018-09-17T02:39:19.286Z,13.10
2018-09-17T02:41:47.391Z,13.00
2018-09-17T02:44:15.515Z,13.00
2018-09-17T02:46:43.742Z,12.90
2018-09-17T02:49:11.890Z,12.90
2018-09-17T02:51:40.010Z,12.90
2018-09-17T02:54:08.232Z,12.80
2018-09-17T02:56:36.337Z,12.80
2018-09-17T02:59:04.440Z,12.90
2018-09-17T03:01:32.559Z,12.80
2018-09-17T03:04:00.667Z,12.80
2018-09-17T03:06:28.781Z,12.80
2018-09-17T03:08:56.891Z,12.80
2018-09-17T03:11:24.998Z,12.80
2018-09-17T03:13:53.113Z,12.70
2018-09-17T03:16:21.245Z,12.80
2018-09-17T03:18:52.770Z,12.70
2018-09-17T03:21:20.906Z,12.70
2018-09-17T03:23:49.194Z,12.70
2018-09-17T03:26:17.694Z,12.60
2018-09-17T03:28:45.874Z,12.60
2018-09-17T03:31:14.009Z,12.60
2018-09-17T03:33:42.194Z,12.60
2018-09-17T03:36:10.346Z,12.60
2018-09-17T03:38:46.952Z,12.60
2018-09-17T03:41:15.841Z,12.60
2018-09-17T03:43:51.579Z,12.60
2018-09-17T03:46:19.851Z,12.60
2018-09-17T03:48:48.054Z,12.60
2018-09-17T03:51:16.517Z,12.60
2018-09-17T03:53:44.638Z,12.60
2018-09-17T03:56:12.797Z,12.60
2018-09-17T03:58:40.918Z,12.60
2018-09-17T04:01:09.018Z,12.60
2018-09-17T04:03:37.129Z,12.60
2018-09-17T04:06:05.243Z,12.60
2018-09-17T04:08:33.840Z,12.60
2018-09-17T04:11:02.025Z,12.60
2018-09-17T04:13:30.135Z,12.50
2018-09-17T04:15:58.249Z,12.50
2018-09-17T04:18:26.374Z,12.50
2018-09-17T04:20:54.606Z,12.50
2018-09-17T04:23:41.438Z,12.50
2018-09-17T04:26:10.881Z,12.50
2018-09-17T04:28:39.338Z,12.50
2018-09-17T04:31:07.524Z,12.40
2018-09-17T04:33:38.206Z,12.40
2018-09-17T04:36:06.579Z,12.40
2018-09-17T04:38:34.718Z,12.30
2018-09-17T04:41:03.118Z,12.30
2018-09-17T04:43:31.234Z,12.30
2018-09-17T04:45:59.817Z,12.30
2018-09-17T04:48:27.949Z,12.30
2018-09-17T04:50:56.147Z,12.30
2018-09-17T04:53:24.342Z,12.20
2018-09-17T04:55:52.538Z,12.20
2018-09-17T04:58:20.761Z,12.20
2018-09-17T05:00:49.577Z,12.20
2018-09-17T05:03:17.703Z,12.20
2018-09-17T05:05:45.825Z,12.20
2018-09-17T05:08:13.934Z,12.20
2018-09-17T05:10:42.035Z,12.20
2018-09-17T05:13:10.206Z,12.20
2018-09-17T05:15:38.245Z,12.20
2018-09-17T05:18:06.616Z,12.20
2018-09-17T05:20:34.958Z,12.20
2018-09-17T05:23:03.059Z,12.20
2018-09-17T05:25:31.298Z,12.30
2018-09-17T05:27:59.426Z,12.30
2018-09-17T05:30:27.552Z,12.30
2018-09-17T05:32:55.709Z,12.30
2018-09-17T05:35:23.873Z,12.30
2018-09-17T05:37:51.974Z,12.30
2018-09-17T05:40:20.248Z,12.30
2018-09-17T05:42:48.383Z,12.40
2018-09-17T05:45:16.490Z,12.40
2018-09-17T05:47:44.642Z,12.50
2018-09-17T05:50:12.738Z,12.50
2018-09-17T05:52:40.854Z,12.50
2018-09-17T05:55:08.955Z,12.50
2018-09-17T05:57:37.106Z,12.50
2018-09-17T06:00:06.576Z,12.50
2018-09-17T06:02:34.794Z,12.60
2018-09-17T06:05:03.022Z,12.60
2018-09-17T06:07:31.138Z,12.60
2018-09-17T06:09:59.296Z,12.60
2018-09-17T06:12:27.419Z,12.60
2018-09-17T06:14:55.594Z,12.70
2018-09-17T06:17:23.756Z,12.70
2018-09-17T06:19:51.803Z,12.70
2018-09-17T06:22:19.914Z,12.80
2018-09-17T06:24:48.050Z,12.80
2018-09-17T06:27:16.166Z,12.80
2018-09-17T06:29:44.287Z,12.90
2018-09-17T06:32:12.458Z,13.00
2018-09-17T06:34:40.578Z,13.10
2018-09-17T06:37:08.679Z,13.20
2018-09-17T06:39:36.835Z,13.20
2018-09-17T06:42:05.014Z,13.30
2018-09-17T06:44:33.127Z,13.40
2018-09-17T06:47:01.235Z,13.50
2018-09-17T06:49:29.370Z,13.60
2018-09-17T06:51:57.479Z,13.70
2018-09-17T06:54:25.631Z,13.80
2018-09-17T06:56:53.732Z,13.80
2018-09-17T06:59:21.842Z,13.90
2018-09-17T07:01:50.055Z,14.00
2018-09-17T07:04:18.195Z,14.10
2018-09-17T07:06:46.306Z,14.20
2018-09-17T07:09:14.442Z,14.30
2018-09-17T07:11:42.706Z,14.40
2018-09-17T07:14:10.976Z,14.60
2018-09-17T07:16:39.217Z,14.70
2018-09-17T07:19:07.388Z,14.80
2018-09-17T07:21:35.510Z,14.90
2018-09-17T07:24:03.662Z,14.90
2018-09-17T07:26:31.796Z,15.00
2018-09-17T07:29:00.484Z,15.10
2018-09-17T07:31:28.594Z,15.20
2018-09-17T07:33:56.722Z,15.30
2018-09-17T07:36:24.923Z,15.40
2018-09-17T07:38:52.972Z,15.50
2018-09-17T07:41:21.071Z,15.70
2018-09-17T07:43:49.191Z,15.80
2018-09-17T07:46:17.319Z,16.00
2018-09-17T07:48:45.434Z,16.10
2018-09-17T07:51:13.582Z,16.20
2018-09-17T07:53:41.714Z,16.30
2018-09-17T07:56:09.877Z,16.40
2018-09-17T07:58:38.000Z,16.40
2018-09-17T08:01:06.178Z,16.40
2018-09-17T08:03:34.282Z,16.40
2018-09-17T08:06:02.431Z,16.40
2018-09-17T08:08:30.614Z,16.50
2018-09-17T08:10:58.784Z,16.60
2018-09-17T08:13:26.915Z,16.60
2018-09-17T08:15:55.062Z,16.70
2018-09-17T08:18:23.197Z,16.90
2018-09-17T08:20:51.331Z,17.00
2018-09-17T08:23:19.458Z,17.10
2018-09-17T08:25:47.600Z,17.20
2018-09-17T08:28:15.747Z,17.30
2018-09-17T08:30:43.883Z,17.40
2018-09-17T08:33:11.987Z,17.60
2018-09-17T08:35:40.128Z,17.70
2018-09-17T08:38:08.325Z,17.80
2018-09-17T08:40:36.383Z,17.90
2018-09-17T08:43:04.501Z,18.00
2018-09-17T08:45:32.692Z,18.20
2018-09-17T08:48:00.801Z,18.30
2018-09-17T08:50:28.926Z,18.50
2018-09-17T08:52:57.094Z,18.60
2018-09-17T08:55:30.708Z,18.70
2018-09-17T08:58:04.215Z,18.90
2018-09-17T09:00:37.879Z,19.00
2018-09-17T09:03:11.334Z,19.10
2018-09-17T09:05:40.934Z,19.30
2018-09-17T09:08:09.294Z,19.40
2018-09-17T09:10:42.834Z,19.70
2018-09-17T09:13:16.450Z,19.90
2018-09-17T09:15:44.854Z,20.10
2018-09-17T09:18:13.002Z,20.20
2018-09-17T09:20:41.832Z,20.30
2018-09-17T09:23:10.283Z,20.40
2018-09-17T09:25:38.424Z,20.60
2018-09-17T09:28:06.592Z,20.60
2018-09-17T09:30:34.816Z,20.80
2018-09-17T09:33:02.942Z,21.00
2018-09-17T09:35:31.059Z,21.10
2018-09-17T09:37:59.178Z,21.30
2018-09-17T09:40:27.354Z,21.50
2018-09-17T09:42:55.489Z,21.70
2018-09-17T09:45:23.638Z,21.90
2018-09-17T09:47:51.761Z,22.10
2018-09-17T09:50:19.954Z,22.30
2018-09-17T09:52:48.075Z,22.40
2018-09-17T09:55:16.194Z,22.60
2018-09-17T09:57:44.306Z,22.70
2018-09-17T10:00:17.886Z,22.90
2018-09-17T10:02:52.305Z,23.10
2018-09-17T10:05:20.870Z,23.20
2018-09-17T10:07:49.084Z,23.40
2018-09-17T10:10:22.658Z,23.50
2018-09-17T10:12:56.284Z,23.60
2018-09-17T10:15:29.882Z,23.80
2018-09-17T10:18:03.865Z,23.90
2018-09-17T10:20:32.007Z,24.10
2018-09-17T10:23:00.186Z,24.20
2018-09-17T10:25:28.326Z,24.40
2018-09-17T10:27:56.551Z,24.50
2018-09-17T10:30:24.814Z,24.50
2018-09-17T10:32:52.934Z,24.60
2018-09-17T10:35:21.069Z,24.80
2018-09-17T10:37:49.198Z,24.80
2018-09-17T10:40:17.318Z,24.90
2018-09-17T10:42:45.470Z,25.00
2018-09-17T10:45:13.645Z,25.10
2018-09-17T10:47:41.795Z,25.10
2018-09-17T10:50:10.036Z,25.20
2018-09-17T10:52:38.207Z,25.20
2018-09-17T10:55:07.257Z,25.40
2018-09-17T10:57:35.421Z,25.50
2018-09-17T11:00:03.560Z,25.60
2018-09-17T11:02:31.782Z,25.70
2018-09-17T11:05:00.082Z,25.90
2018-09-17T11:07:28.335Z,26.10
2018-09-17T11:09:56.469Z,26.30
2018-09-17T11:12:24.779Z,26.50
2018-09-17T11:14:52.898Z,26.70
2018-09-17T11:17:21.128Z,26.80
2018-09-17T11:19:49.251Z,27.00
2018-09-17T11:22:17.403Z,27.10
2018-09-17T11:24:45.534Z,27.30
2018-09-17T11:27:13.664Z,27.40
2018-09-17T11:29:41.827Z,27.70
2018-09-17T11:32:10.298Z,27.90
2018-09-17T11:34:38.498Z,28.00
2018-09-17T11:37:06.830Z,28.10
2018-09-17T11:39:34.960Z,28.10
2018-09-17T11:42:03.162Z,28.30
2018-09-17T11:44:31.313Z,28.40
2018-09-17T11:46:59.604Z,28.50
2018-09-17T11:49:27.922Z,28.60
2018-09-17T11:51:56.070Z,28.80
2018-09-17T11:54:24.260Z,28.90
2018-09-17T11:56:52.494Z,29.10
2018-09-17T11:59:20.634Z,29.10
2018-09-17T12:01:50.868Z,29.20
2018-09-17T12:04:24.567Z,29.30
2018-09-17T12:06:58.154Z,29.30
2018-09-17T12:09:26.335Z,29.50
2018-09-17T12:11:54.462Z,29.70
2018-09-17T12:14:22.601Z,30.00
2018-09-17T12:16:50.766Z,30.30
2018-09-17T12:19:18.865Z,30.50
2018-09-17T12:21:47.064Z,30.80
2018-09-17T12:24:15.163Z,31.00
2018-09-17T12:26:43.392Z,31.20
2018-09-17T12:29:11.537Z,31.40
2018-09-17T12:31:39.655Z,31.60
2018-09-17T12:34:07.791Z,31.90
2018-09-17T12:36:35.898Z,32.30
2018-09-17T12:39:06.890Z,32.80
2018-09-17T12:41:35.027Z,33.10
2018-09-17T12:44:03.382Z,33.40
2018-09-17T12:46:31.534Z,33.70
2018-09-17T12:48:59.711Z,33.90
2018-09-17T12:51:27.861Z,34.10
2018-09-17T12:53:56.021Z,34.30
2018-09-17T12:56:24.202Z,34.20
2018-09-17T12:58:52.992Z,34.30
2018-09-17T13:01:21.147Z,34.50
2018-09-17T13:03:49.314Z,34.70
2018-09-17T13:06:17.519Z,34.90
2018-09-17T13:08:45.678Z,34.70
2018-09-17T13:11:13.861Z,34.20
2018-09-17T13:13:41.994Z,33.80
2018-09-17T13:16:10.114Z,33.50
2018-09-17T13:18:38.259Z,33.30
2018-09-17T13:21:06.459Z,33.20
2018-09-17T13:23:34.614Z,33.10
2018-09-17T13:26:02.772Z,33.10
2018-09-17T13:28:30.902Z,33.10
2018-09-17T13:30:59.055Z,33.00
2018-09-17T13:33:27.203Z,33.30
2018-09-17T13:35:55.290Z,33.40
2018-09-17T13:38:23.444Z,33.30
2018-09-17T13:40:51.638Z,33.30
2018-09-17T13:43:19.783Z,33.30
2018-09-17T13:45:47.976Z,33.20
2018-09-17T13:48:16.116Z,33.20
2018-09-17T13:50:44.244Z,33.00
2018-09-17T13:53:12.426Z,32.70
2018-09-17T13:55:40.538Z,32.60
2018-09-17T13:58:08.723Z,32.50
2018-09-17T14:00:36.867Z,32.60
2018-09-17T14:03:05.037Z,32.90
2018-09-17T14:05:33.219Z,33.40
2018-09-17T14:08:01.348Z,33.80
2018-09-17T14:10:29.513Z,34.40
2018-09-17T14:12:57.622Z,35.10
2018-09-17T14:15:25.759Z,35.50
2018-09-17T14:17:53.931Z,35.70
2018-09-17T14:20:22.087Z,35.80
2018-09-17T14:22:50.216Z,36.00
2018-09-17T14:25:18.314Z,36.00
2018-09-17T14:27:46.452Z,35.60
2018-09-17T14:30:14.573Z,35.00
2018-09-17T14:32:48.235Z,34.50
2018-09-17T14:35:16.336Z,33.90
2018-09-17T14:37:44.594Z,33.50
2018-09-17T14:40:12.867Z,33.20
2018-09-17T14:42:40.978Z,32.90
2018-09-17T14:45:09.130Z,32.70
2018-09-17T14:47:37.256Z,32.70
2018-09-17T14:50:05.376Z,32.50
2018-09-17T14:52:33.480Z,32.20
2018-09-17T14:55:01.594Z,32.10
2018-09-17T14:57:29.785Z,31.90
2018-09-17T14:59:57.882Z,31.80
2018-09-17T15:02:26.441Z,31.80
2018-09-17T15:04:54.651Z,31.60
2018-09-17T15:07:22.766Z,31.50
2018-09-17T15:09:50.914Z,31.40
2018-09-17T15:12:19.013Z,31.20
2018-09-17T15:14:47.143Z,31.00
2018-09-17T15:17:15.279Z,30.70
2018-09-17T15:19:43.427Z,30.50
2018-09-17T15:22:11.525Z,30.20
2018-09-17T15:24:39.629Z,30.00
2018-09-17T15:27:07.757Z,29.80
2018-09-17T15:29:35.876Z,29.50
2018-09-17T15:32:03.962Z,29.40
2018-09-17T15:34:32.187Z,29.20
2018-09-17T15:37:00.182Z,29.10
2018-09-17T15:39:28.311Z,29.00
2018-09-17T15:41:56.453Z,28.90
2018-09-17T15:44:24.681Z,28.80
2018-09-17T15:46:52.812Z,28.80
2018-09-17T15:49:20.890Z,28.80
2018-09-17T15:51:49.009Z,28.70
2018-09-17T15:54:17.135Z,28.60
2018-09-17T15:56:45.258Z,28.60
2018-09-17T15:59:13.434Z,28.50
2018-09-17T16:01:41.562Z,28.50
2018-09-17T16:04:09.690Z,28.40
2018-09-17T16:06:38.679Z,28.30
2018-09-17T16:09:07.435Z,28.30
2018-09-17T16:11:35.834Z,28.20
2018-09-17T16:14:04.079Z,28.10
2018-09-17T16:16:32.150Z,28.00
2018-09-17T16:19:00.274Z,28.00
2018-09-17T16:21:28.382Z,27.90
2018-09-17T16:23:56.499Z,27.90
2018-09-17T16:26:24.622Z,27.80
2018-09-17T16:28:52.729Z,27.80
2018-09-17T16:31:20.856Z,27.70
2018-09-17T16:33:49.270Z,27.60
2018-09-17T16:36:17.386Z,27.60
2018-09-17T16:38:45.780Z,27.50
2018-09-17T16:41:13.975Z,27.40
2018-09-17T16:43:42.109Z,27.40
2018-09-17T16:46:10.338Z,27.30
2018-09-17T16:48:38.478Z,27.20
2018-09-17T16:51:06.650Z,27.10
2018-09-17T16:53:35.006Z,27.00
2018-09-17T16:56:02.994Z,26.90
2018-09-17T16:58:31.085Z,26.80
2018-09-17T17:00:59.214Z,26.80
2018-09-17T17:03:27.428Z,26.70
2018-09-17T17:05:55.668Z,26.50
2018-09-17T17:08:23.764Z,26.50
2018-09-17T17:10:52.029Z,26.30
2018-09-17T17:13:20.064Z,26.20
2018-09-17T17:15:50.297Z,26.10
2018-09-17T17:18:20.898Z,26.00
2018-09-17T17:20:49.118Z,25.80
2018-09-17T17:23:17.218Z,25.70
2018-09-17T17:25:45.402Z,25.50
2018-09-17T17:28:13.569Z,25.30
2018-09-17T17:30:41.630Z,25.20
2018-09-17T17:33:09.800Z,25.10
2018-09-17T17:35:38.025Z,24.90
2018-09-17T17:38:06.401Z,24.70
2018-09-17T17:40:34.707Z,24.60
2018-09-17T17:43:02.683Z,24.40
2018-09-17T17:45:30.890Z,24.30
2018-09-17T17:47:59.152Z,24.10
2018-09-17T17:50:27.307Z,24.00
2018-09-17T17:52:55.426Z,23.90
2018-09-17T17:55:23.564Z,23.80
2018-09-17T17:57:51.739Z,23.70
2018-09-17T18:00:19.823Z,23.70
2018-09-17T18:02:47.940Z,23.60
2018-09-17T18:05:16.091Z,23.50
2018-09-17T18:07:44.252Z,23.40
2018-09-17T18:10:12.438Z,23.30
2018-09-17T18:12:40.560Z,23.20
2018-09-17T18:15:08.676Z,23.00
2018-09-17T18:17:36.783Z,22.90
2018-09-17T18:20:06.319Z,22.80
2018-09-17T18:22:34.447Z,22.70
2018-09-17T18:25:02.594Z,22.60
2018-09-17T18:27:30.719Z,22.50
2018-09-17T18:29:58.870Z,22.40
2018-09-17T18:32:27.003Z,22.30
2018-09-17T18:34:55.110Z,22.20
2018-09-17T18:37:23.250Z,22.10
2018-09-17T18:39:51.416Z,22.00
2018-09-17T18:42:19.590Z,21.90
2018-09-17T18:44:47.648Z,21.80
2018-09-17T18:47:15.786Z,21.70
2018-09-17T18:49:43.890Z,21.70
2018-09-17T18:52:12.024Z,21.60
2018-09-17T18:54:40.149Z,21.50
2018-09-17T18:57:08.320Z,21.40
2018-09-17T18:59:36.722Z,21.30
2018-09-17T19:02:05.120Z,21.20
2018-09-17T19:04:33.370Z,21.10
2018-09-17T19:07:01.677Z,21.00
2018-09-17T19:09:35.243Z,20.90
2018-09-17T19:12:03.603Z,20.80
2018-09-17T19:14:36.843Z,20.80
2018-09-17T19:17:10.370Z,20.70
2018-09-17T19:19:38.467Z,20.60
2018-09-17T19:22:12.299Z,20.50
2018-09-17T19:24:40.270Z,20.40
2018-09-17T19:27:08.562Z,20.30
2018-09-17T19:29:36.719Z,20.20
2018-09-17T19:32:04.900Z,20.20
2018-09-17T19:34:32.954Z,20.10
2018-09-17T19:37:06.499Z,20.10
2018-09-17T19:39:40.189Z,20.00
2018-09-17T19:42:08.634Z,20.00
2018-09-17T19:44:36.679Z,19.90
2018-09-17T19:47:04.822Z,19.90
2018-09-17T19:49:33.143Z,19.80
2018-09-17T19:52:06.815Z,19.80
2018-09-17T19:54:35.022Z,19.70
2018-09-17T19:57:07.387Z,19.60
2018-09-17T19:59:41.159Z,19.50
2018-09-17T20:02:09.279Z,19.50
2018-09-17T20:04:42.961Z,19.40
2018-09-17T20:07:11.236Z,19.30
2018-09-17T20:09:39.361Z,19.30
2018-09-17T20:12:07.488Z,19.20
2018-09-17T20:14:35.626Z,19.20
2018-09-17T20:17:03.748Z,19.10
2018-09-17T20:19:31.974Z,19.10
2018-09-17T20:22:00.107Z,19.10
2018-09-17T20:24:28.217Z,19.00
2018-09-17T20:26:56.342Z,18.90
2018-09-17T20:29:24.451Z,18.90
2018-09-17T20:31:52.734Z,18.80
2018-09-17T20:34:20.778Z,18.80
2018-09-17T20:36:48.928Z,18.80
2018-09-17T20:39:17.034Z,18.70
2018-09-17T20:41:45.184Z,18.80
2018-09-17T20:44:13.359Z,18.70
2018-09-17T20:46:41.525Z,18.70
2018-09-17T20:49:09.723Z,18.70
2018-09-17T20:51:37.855Z,18.60
2018-09-17T20:54:06.071Z,18.60
2018-09-17T20:56:34.195Z,18.60
2018-09-17T20:59:02.349Z,18.60
2018-09-17T21:01:30.536Z,18.50
2018-09-17T21:03:58.606Z,18.50
2018-09-17T21:06:26.808Z,18.50
2018-09-17T21:08:55.010Z,18.50
2018-09-17T21:11:23.514Z,18.40
2018-09-17T21:13:51.943Z,18.40
2018-09-17T21:16:20.071Z,18.30
2018-09-17T21:18:48.254Z,18.30
2018-09-17T21:21:18.166Z,18.30
2018-09-17T21:23:46.777Z,18.30
2018-09-17T21:26:14.958Z,18.20
2018-09-17T21:28:43.207Z,18.20
2018-09-17T21:31:11.554Z,18.20
2018-09-17T21:33:39.695Z,18.20
2018-09-17T21:36:07.912Z,18.20
2018-09-17T21:38:36.051Z,18.20
2018-09-17T21:41:04.180Z,18.20
2018-09-17T21:43:32.288Z,18.20
2018-09-17T21:46:00.386Z,18.20
2018-09-17T21:48:28.541Z,18.20
2018-09-17T21:50:56.681Z,18.10
2018-09-17T21:53:24.875Z,18.10
2018-09-17T21:55:52.995Z,18.10
2018-09-17T21:58:21.147Z,18.00
2018-09-17T22:00:54.773Z,18.00
2018-09-17T22:03:22.882Z,18.00
2018-09-17T22:05:51.007Z,18.00
2018-09-17T22:08:19.142Z,17.90
2018-09-17T22:10:47.246Z,17.80
2018-09-17T22:13:15.392Z,17.70
2018-09-17T22:15:43.512Z,17.60
2018-09-17T22:18:11.662Z,17.50
2018-09-17T22:20:39.944Z,17.50
2018-09-17T22:23:08.083Z,17.50
2018-09-17T22:25:36.207Z,17.40
2018-09-17T22:28:04.346Z,17.40
2018-09-17T22:30:32.483Z,17.40
2018-09-17T22:33:00.604Z,17.40
2018-09-17T22:35:28.839Z,17.30
2018-09-17T22:37:57.024Z,17.20
2018-09-17T22:40:25.863Z,17.10
2018-09-17T22:42:53.983Z,17.10
2018-09-17T22:45:22.100Z,17.00
2018-09-17T22:47:50.210Z,17.00
2018-09-17T22:50:18.357Z,16.90
2018-09-17T22:52:46.503Z,16.90
2018-09-17T22:55:14.636Z,16.90
2018-09-17T22:57:42.853Z,16.90
2018-09-17T23:00:10.974Z,16.90
2018-09-17T23:02:39.122Z,16.80
2018-09-17T23:05:07.338Z,16.80
2018-09-17T23:07:35.471Z,16.80
2018-09-17T23:10:03.879Z,16.80
2018-09-17T23:12:32.009Z,16.80
2018-09-17T23:15:00.141Z,16.80
2018-09-17T23:17:28.246Z,16.80
2018-09-17T23:19:56.468Z,16.80
2018-09-17T23:22:24.569Z,16.70
2018-09-17T23:24:52.711Z,16.70
2018-09-17T23:27:20.840Z,16.70
2018-09-17T23:29:48.971Z,16.70
2018-09-17T23:32:17.169Z,16.70
2018-09-17T23:34:45.294Z,16.70
2018-09-17T23:37:13.415Z,16.70
2018-09-17T23:39:41.598Z,16.70
2018-09-17T23:42:09.709Z,16.80
2018-09-17T23:44:37.850Z,16.80
2018-09-17T23:47:06.679Z,16.80
2018-09-17T23:49:34.818Z,16.80
2018-09-17T23:52:02.939Z,16.90
2018-09-17T23:54:31.094Z,16.90
2018-09-17T23:56:59.206Z,16.90
2018-09-17T23:59:27.345Z,17.00
